Time,TemperatureF,DewpointF,PressureIn,WindDirection,WindDirectionDegrees,WindSpeedMPH,WindSpeedGustMPH,Humidity,HourlyPrecipIn,Conditions,Clouds,dailyrainin,SoftwareType,DateUTC
2013-06-04 00:13:00,39.1,38.0,30.02,SE,131,0.0,1.0,97,0.00,,,0.00,weatherlink.com 1.10,2013-06-04 07:13:00,
2013-06-04 00:28:00,39.9,39.0,30.02,SSW,194,0.0,0.0,95,0.00,,,0.00,weatherlink.com 1.10,2013-06-04 07:28:00,
2013-06-04 00:43:00,40.2,39.0,30.03,ENE,74,1.0,2.0,96,0.00,,,0.00,weatherlink.com 1.10,2013-06-04 07:43:00,
2013-06-04 00:58:00,49.0,42.0,30.03,ENE,58,3.0,3.0,78,0.00,,,0.00,weatherlink.com 1.10,2013-06-04 07:58:00,
2013-06-04 01:13:00,48.0,41.0,30.02,ESE,122,0.0,1.0,76,0.00,,,0.00,weatherlink.com 1.10,2013-06-04 08:13:00,
2013-06-04 01:28:00,44.8,40.0,30.02,North,1,0.0,1.0,83,0.00,,,0.00,weatherlink.com 1.10,2013-06-04 08:28:00,
2013-06-04 01:43:00,43.9,41.0,30.03,East,90,0.0,1.0,88,0.00,,,0.00,weatherlink.com 1.10,2013-06-04 08:43:00,
2013-06-04 01:58:00,45.6,41.0,30.03,East,94,0.0,2.0,84,0.00,,,0.00,weatherlink.com 1.10,2013-06-04 08:58:00,
2013-06-04 02:13:00,43.3,40.0,30.03,SE,131,1.0,2.0,89,0.00,,,0.00,weatherlink.com 1.10,2013-06-04 09:13:00,
2013-06-04 02:28:00,45.1,42.0,30.03,ENE,74,3.0,3.0,88,0.00,,,0.00,weatherlink.com 1.10,2013-06-04 09:28:00,
2013-06-04 02:43:00,47.5,42.0,30.04,NE,47,1.0,2.0,81,0.00,,,0.00,weatherlink.com 1.10,2013-06-04 09:43:00,
2013-06-04 02:58:00,48.1,42.0,30.03,NE,52,2.0,5.0,79,0.00,,,0.00,weatherlink.com 1.10,2013-06-04 09:58:00,
2013-06-04 03:13:00,47.1,42.0,30.03,ENE,66,2.0,2.0,81,0.00,,,0.00,weatherlink.com 1.10,2013-06-04 10:13:00,
2013-06-04 03:28:00,48.4,42.0,30.04,ENE,70,3.0,3.0,78,0.00,,,0.00,weatherlink.com 1.10,2013-06-04 10:28:00,
2013-06-04 03:43:00,47.5,42.0,30.04,East,79,1.0,3.0,81,0.00,,,0.00,weatherlink.com 1.10,2013-06-04 10:43:00,
2013-06-04 03:58:00,47.1,42.0,30.04,NE,36,2.0,3.0,82,0.00,,,0.00,weatherlink.com 1.10,2013-06-04 10:58:00,
2013-06-04 04:13:00,47.2,42.0,30.04,ENE,77,0.0,3.0,82,0.00,,,0.00,weatherlink.com 1.10,2013-06-04 11:13:00,
2013-06-04 04:28:00,46.2,42.0,30.05,NE,55,0.0,3.0,85,0.00,,,0.00,weatherlink.com 1.10,2013-06-04 11:28:00,
2013-06-04 04:43:00,45.8,42.0,30.05,ENE,58,0.0,3.0,86,0.00,,,0.00,weatherlink.com 1.10,2013-06-04 11:43:00,
2013-06-04 04:58:00,45.0,41.0,30.05,NE,53,1.0,2.0,87,0.00,,,0.00,weatherlink.com 1.10,2013-06-04 11:58:00,
2013-06-04 05:13:00,44.4,41.0,30.05,ENE,72,2.0,3.0,88,0.00,,,0.00,weatherlink.com 1.10,2013-06-04 12:13:00,
2013-06-04 05:28:00,43.9,41.0,30.06,ESE,120,0.0,3.0,90,0.00,,,0.00,weatherlink.com 1.10,2013-06-04 12:28:00,
2013-06-04 05:43:00,44.7,42.0,30.06,East,91,2.0,4.0,91,0.00,,,0.00,weatherlink.com 1.10,2013-06-04 12:43:00,
2013-06-04 05:58:00,46.5,44.0,30.07,ENE,76,1.0,4.0,89,0.00,,,0.00,weatherlink.com 1.10,2013-06-04 12:58:00,
2013-06-04 06:13:00,48.6,45.0,30.07,NE,54,2.0,3.0,86,0.00,,,0.00,weatherlink.com 1.10,2013-06-04 13:13:00,
2013-06-04 06:28:00,49.8,45.0,30.08,East,82,4.0,6.0,83,0.00,,,0.00,weatherlink.com 1.10,2013-06-04 13:28:00,
2013-06-04 06:43:00,51.5,45.0,30.07,NE,49,3.0,8.0,79,0.00,,,0.00,weatherlink.com 1.10,2013-06-04 13:43:00,
2013-06-04 06:58:00,52.2,46.0,30.08,ENE,77,2.0,9.0,78,0.00,,,0.00,weatherlink.com 1.10,2013-06-04 13:58:00,
2013-06-04 07:13:00,52.6,45.0,30.08,NE,46,3.0,10.0,76,0.00,,,0.00,weatherlink.com 1.10,2013-06-04 14:13:00,
2013-06-04 07:28:00,53.3,46.0,30.08,East,92,4.0,9.0,75,0.00,,,0.00,weatherlink.com 1.10,2013-06-04 14:28:00,
2013-06-04 07:43:00,53.9,46.0,30.09,NE,42,7.0,10.0,74,0.00,,,0.00,weatherlink.com 1.10,2013-06-04 14:43:00,
2013-06-04 07:59:00,54.7,46.0,30.09,ESE,103,3.0,10.0,73,0.00,,,0.00,weatherlink.com 1.10,2013-06-04 14:59:00,
2013-06-04 08:14:00,55.7,47.0,30.09,ENE,69,4.0,8.0,73,0.00,,,0.00,weatherlink.com 1.10,2013-06-04 15:14:00,
2013-06-04 08:29:00,56.1,46.0,30.09,North,11,5.0,9.0,70,0.00,,,0.00,weatherlink.com 1.10,2013-06-04 15:29:00,
2013-06-04 08:44:00,57.3,46.0,30.09,East,80,4.0,7.0,66,0.00,,,0.00,weatherlink.com 1.10,2013-06-04 15:44:00,
2013-06-04 08:59:00,57.9,46.0,30.10,ESE,103,3.0,8.0,65,0.00,,,0.00,weatherlink.com 1.10,2013-06-04 15:59:00,
2013-06-04 09:14:00,58.4,45.0,30.10,NE,41,4.0,9.0,62,0.00,,,0.00,weatherlink.com 1.10,2013-06-04 16:14:00,
2013-06-04 09:29:00,59.9,47.0,30.10,ENE,57,6.0,7.0,63,0.00,,,0.00,weatherlink.com 1.10,2013-06-04 16:29:00,
2013-06-04 09:44:00,60.3,47.0,30.10,ENE,77,1.0,6.0,62,0.00,,,0.00,weatherlink.com 1.10,2013-06-04 16:44:00,
2013-06-04 09:59:00,62.3,47.0,30.09,SSW,207,4.0,5.0,58,0.00,,,0.00,weatherlink.com 1.10,2013-06-04 16:59:00,
2013-06-04 10:14:00,62.6,47.0,30.09,SSE,155,2.0,8.0,57,0.00,,,0.00,weatherlink.com 1.10,2013-06-04 17:14:00,
2013-06-04 10:29:00,63.3,48.0,30.09,SW,225,2.0,8.0,57,0.00,,,0.00,weatherlink.com 1.10,2013-06-04 17:29:00,
2013-06-04 10:44:00,64.1,46.0,30.09,NE,48,2.0,7.0,53,0.00,,,0.00,weatherlink.com 1.10,2013-06-04 17:44:00,
2013-06-04 10:59:00,64.8,45.0,30.09,ESE,115,1.0,5.0,49,0.00,,,0.00,weatherlink.com 1.10,2013-06-04 17:59:00,
2013-06-04 11:14:00,64.1,46.0,30.09,SSW,205,3.0,4.0,53,0.00,,,0.00,weatherlink.com 1.10,2013-06-04 18:14:00,
2013-06-04 11:29:00,64.8,47.0,30.09,SW,216,3.0,5.0,53,0.00,,,0.00,weatherlink.com 1.10,2013-06-04 18:29:00,
2013-06-04 11:44:00,65.3,48.0,30.09,West,270,1.0,4.0,54,0.00,,,0.00,weatherlink.com 1.10,2013-06-04 18:44:00,
2013-06-04 11:59:00,66.7,46.0,30.09,SSW,195,5.0,6.0,47,0.00,,,0.00,weatherlink.com 1.10,2013-06-04 18:59:00,
2013-06-04 12:14:00,66.2,46.0,30.09,SW,224,3.0,8.0,49,0.00,,,0.00,weatherlink.com 1.10,2013-06-04 19:14:00,
2013-06-04 12:29:00,66.6,44.0,30.08,West,278,3.0,4.0,45,0.00,,,0.00,weatherlink.com 1.10,2013-06-04 19:29:00,
2013-06-04 12:44:00,68.0,45.0,30.08,SW,232,5.0,5.0,44,0.00,,,0.00,weatherlink.com 1.10,2013-06-04 19:44:00,
2013-06-04 12:59:00,67.7,48.0,30.08,SE,138,3.0,6.0,49,0.00,,,0.00,weatherlink.com 1.10,2013-06-04 19:59:00,
2013-06-04 13:14:00,67.6,45.0,30.08,West,269,3.0,8.0,45,0.00,,,0.00,weatherlink.com 1.10,2013-06-04 20:14:00,
2013-06-04 13:29:00,66.8,43.0,30.08,WNW,301,3.0,11.0,43,0.00,,,0.00,weatherlink.com 1.10,2013-06-04 20:29:00,
2013-06-04 13:44:00,67.6,44.0,30.07,SW,217,1.0,6.0,42,0.00,,,0.00,weatherlink.com 1.10,2013-06-04 20:44:00,
2013-06-04 13:59:00,68.1,46.0,30.07,West,269,5.0,9.0,46,0.00,,,0.00,weatherlink.com 1.10,2013-06-04 20:59:00,
2013-06-04 14:14:00,67.9,43.0,30.07,WSW,245,0.0,5.0,41,0.00,,,0.00,weatherlink.com 1.10,2013-06-04 21:14:00,
2013-06-04 14:29:00,68.8,48.0,30.07,West,260,2.0,7.0,47,0.00,,,0.00,weatherlink.com 1.10,2013-06-04 21:29:00,
2013-06-04 14:44:00,69.3,44.0,30.07,WSW,238,4.0,9.0,40,0.00,,,0.00,weatherlink.com 1.10,2013-06-04 21:44:00,
2013-06-04 14:59:00,69.0,42.0,30.07,NW,311,2.0,10.0,38,0.00,,,0.00,weatherlink.com 1.10,2013-06-04 21:59:00,
2013-06-04 15:14:00,69.8,44.0,30.06,SE,140,2.0,6.0,39,0.00,,,0.00,weatherlink.com 1.10,2013-06-04 22:14:00,
2013-06-04 15:31:00,70.2,45.0,30.06,SW,229,5.0,9.0,41,0.00,,,0.00,weatherlink.com 1.10,2013-06-04 22:31:00,
2013-06-04 15:45:00,69.9,44.0,30.06,WSW,248,3.0,7.0,40,0.00,,,0.00,weatherlink.com 1.10,2013-06-04 22:45:00,
2013-06-04 16:00:00,69.9,44.0,30.05,SW,228,0.0,6.0,39,0.00,,,0.00,weatherlink.com 1.10,2013-06-04 23:00:00,
2013-06-04 16:15:00,70.1,45.0,30.05,West,274,3.0,9.0,41,0.00,,,0.00,weatherlink.com 1.10,2013-06-04 23:15:00,
2013-06-04 16:30:00,70.3,43.0,30.05,SSW,195,2.0,8.0,38,0.00,,,0.00,weatherlink.com 1.10,2013-06-04 23:30:00,
2013-06-04 16:45:00,71.3,44.0,30.05,SW,233,1.0,4.0,38,0.00,,,0.00,weatherlink.com 1.10,2013-06-04 23:45:00,
2013-06-04 17:00:00,71.4,44.0,30.04,West,262,5.0,7.0,38,0.00,,,0.00,weatherlink.com 1.10,2013-06-05 00:00:00,
2013-06-04 17:15:00,70.7,44.0,30.04,WSW,246,3.0,7.0,38,0.00,,,0.00,weatherlink.com 1.10,2013-06-05 00:15:00,
2013-06-04 17:30:00,71.1,43.0,30.04,SW,229,4.0,6.0,37,0.00,,,0.00,weatherlink.com 1.10,2013-06-05 00:30:00,
2013-06-04 17:45:00,70.8,45.0,30.04,SW,232,4.0,6.0,39,0.00,,,0.00,weatherlink.com 1.10,2013-06-05 00:45:00,
2013-06-04 18:00:00,70.6,46.0,30.04,West,263,4.0,6.0,41,0.00,,,0.00,weatherlink.com 1.10,2013-06-05 01:00:00,
2013-06-04 18:15:00,70.6,47.0,30.04,West,263,2.0,6.0,43,0.00,,,0.00,weatherlink.com 1.10,2013-06-05 01:15:00,
2013-06-04 18:30:00,70.1,45.0,30.03,West,269,3.0,6.0,41,0.00,,,0.00,weatherlink.com 1.10,2013-06-05 01:30:00,
2013-06-04 18:45:00,70.4,45.0,30.03,West,266,2.0,4.0,40,0.00,,,0.00,weatherlink.com 1.10,2013-06-05 01:45:00,
2013-06-04 19:00:00,70.1,46.0,30.04,WSW,257,1.0,4.0,43,0.00,,,0.00,weatherlink.com 1.10,2013-06-05 02:00:00,
2013-06-04 19:15:00,69.9,49.0,30.04,West,273,0.0,3.0,48,0.00,,,0.00,weatherlink.com 1.10,2013-06-05 02:15:00,
2013-06-04 19:30:00,68.6,50.0,30.04,WNW,301,2.0,4.0,51,0.00,,,0.00,weatherlink.com 1.10,2013-06-05 02:30:00,
2013-06-04 19:45:00,67.1,49.0,30.04,WNW,298,1.0,3.0,52,0.00,,,0.00,weatherlink.com 1.10,2013-06-05 02:45:00,
2013-06-04 20:00:00,65.5,48.0,30.04,NW,312,2.0,3.0,54,0.00,,,0.00,weatherlink.com 1.10,2013-06-05 03:00:00,
2013-06-04 20:15:00,64.3,49.0,30.04,North,9,2.0,2.0,57,0.00,,,0.00,weatherlink.com 1.10,2013-06-05 03:15:00,
2013-06-04 20:30:00,61.2,47.0,30.04,NNE,14,2.0,3.0,60,0.00,,,0.00,weatherlink.com 1.10,2013-06-05 03:30:00,
2013-06-04 20:45:00,60.2,47.0,30.04,NNE,23,3.0,3.0,61,0.00,,,0.00,weatherlink.com 1.10,2013-06-05 03:45:00,
2013-06-04 21:00:00,59.2,47.0,30.04,NNE,25,0.0,3.0,65,0.00,,,0.00,weatherlink.com 1.10,2013-06-05 04:00:00,
2013-06-04 21:15:00,56.1,46.0,30.04,NNE,25,0.0,0.0,70,0.00,,,0.00,weatherlink.com 1.10,2013-06-05 04:15:00,
2013-06-04 21:30:00,53.8,46.0,30.05,NNE,25,0.0,0.0,76,0.00,,,0.00,weatherlink.com 1.10,2013-06-05 04:30:00,
2013-06-04 21:45:00,52.1,46.0,30.05,NNE,25,0.0,0.0,81,0.00,,,0.00,weatherlink.com 1.10,2013-06-05 04:45:00,
2013-06-04 22:00:00,50.1,46.0,30.05,NNE,24,0.0,1.0,84,0.00,,,0.00,weatherlink.com 1.10,2013-06-05 05:00:00,
2013-06-04 22:15:00,49.6,45.0,30.05,NNE,24,0.0,0.0,84,0.00,,,0.00,weatherlink.com 1.10,2013-06-05 05:15:00,
2013-06-04 22:30:00,48.6,45.0,30.05,NNE,24,0.0,1.0,87,0.00,,,0.00,weatherlink.com 1.10,2013-06-05 05:30:00,
2013-06-04 22:45:00,46.7,43.0,30.04,NNE,25,0.0,0.0,88,0.00,,,0.00,weatherlink.com 1.10,2013-06-05 05:45:00,
2013-06-04 23:00:00,45.1,43.0,30.04,NNE,25,0.0,0.0,91,0.00,,,0.00,weatherlink.com 1.10,2013-06-05 06:00:00,
2013-06-04 23:15:00,44.3,42.0,30.04,NNE,24,0.0,0.0,93,0.00,,,0.00,weatherlink.com 1.10,2013-06-05 06:15:00,
2013-06-04 23:30:00,43.9,42.0,30.04,NNE,25,0.0,0.0,94,0.00,,,0.00,weatherlink.com 1.10,2013-06-05 06:30:00,
2013-06-04 23:45:00,43.5,43.0,30.04,NNE,25,0.0,0.0,96,0.00,,,0.00,weatherlink.com 1.10,2013-06-05 06:45:00,